Terminal Aerodrome Forecast
Issued by NWS

Home | Current Version | Previous Version | Text Only | Print | Product List | Glossary On
Versions: 1 2 3 4 5 6 7 8 9 10 11 12 13 14 15 16 17 18 19 20 21 22 23 24 25 26 27 28 29 30 31
000
FTUS43 KLOT 240900 AAA
TAFGYY
TAF AMD
KGYY 240905Z 2409/2506 05007KT P6SM VCSH SCT050 OVC060
     FM241000 08010KT P6SM BKN080
     FM241400 13015G23KT P6SM BKN200
     FM241700 14020G30KT P6SM SCT050 BKN150
     FM242200 15015G24KT P6SM BKN050
     FM250100 16009KT 6SM -SHRA SCT020 OVC040=

USA.gov is the U.S. government's official web portal to all federal, state and local government web resources and services.